sensor_id;sensor_type;location;lat;lon;timestamp;pressure;altitude;pressure_sealevel;temperature;humidity
17260;BME280;8746;49.230;9.220;2022-12-18T00:01:21;101286.03;;;-10.51;91.42
17260;BME280;8746;49.230;9.220;2022-12-18T00:03:47;101293.09;;;-10.47;92.26
17260;BME280;8746;49.230;9.220;2022-12-18T00:06:13;101295.44;;;-10.36;92.23
17260;BME280;8746;49.230;9.220;2022-12-18T00:08:41;101290.53;;;-10.33;91.17
17260;BME280;8746;49.230;9.220;2022-12-18T00:11:10;101291.31;;;-10.34;91.60
17260;BME280;8746;49.230;9.220;2022-12-18T00:13:36;101280.72;;;-10.27;91.25
17260;BME280;8746;49.230;9.220;2022-12-18T00:16:10;101287.59;;;-10.26;91.07
17260;BME280;8746;49.230;9.220;2022-12-18T00:18:35;101282.50;;;-10.12;91.52
17260;BME280;8746;49.230;9.220;2022-12-18T00:21:03;101281.34;;;-10.18;91.95
17260;BME280;8746;49.230;9.220;2022-12-18T00:23:30;101286.84;;;-10.11;92.03
17260;BME280;8746;49.230;9.220;2022-12-18T00:26:00;101278.66;;;-10.19;94.00
17260;BME280;8746;49.230;9.220;2022-12-18T00:28:25;101287.22;;;-10.19;94.19
17260;BME280;8746;49.230;9.220;2022-12-18T00:30:50;101293.03;;;-10.08;92.69
17260;BME280;8746;49.230;9.220;2022-12-18T00:33:17;101278.00;;;-9.90;92.74
17260;BME280;8746;49.230;9.220;2022-12-18T00:35:43;101279.75;;;-9.89;91.68
17260;BME280;8746;49.230;9.220;2022-12-18T00:38:08;101275.81;;;-9.97;91.82
17260;BME280;8746;49.230;9.220;2022-12-18T00:40:33;101276.72;;;-9.96;93.02
17260;BME280;8746;49.230;9.220;2022-12-18T00:42:59;101272.09;;;-10.02;94.83
17260;BME280;8746;49.230;9.220;2022-12-18T00:45:29;101276.25;;;-9.91;94.81
17260;BME280;8746;49.230;9.220;2022-12-18T00:47:56;101278.75;;;-9.77;93.89
17260;BME280;8746;49.230;9.220;2022-12-18T00:50:23;101280.91;;;-9.70;93.57
17260;BME280;8746;49.230;9.220;2022-12-18T00:52:49;101284.69;;;-9.65;93.52
17260;BME280;8746;49.230;9.220;2022-12-18T00:55:16;101296.47;;;-9.67;94.00
17260;BME280;8746;49.230;9.220;2022-12-18T00:57:41;101298.91;;;-9.69;93.90
17260;BME280;8746;49.230;9.220;2022-12-18T01:00:11;101304.22;;;-9.66;94.33
17260;BME280;8746;49.230;9.220;2022-12-18T01:02:37;101301.06;;;-9.61;93.29
17260;BME280;8746;49.230;9.220;2022-12-18T01:05:03;101303.72;;;-9.60;93.37
17260;BME280;8746;49.230;9.220;2022-12-18T01:07:28;101295.75;;;-9.64;93.11
17260;BME280;8746;49.230;9.220;2022-12-18T01:09:54;101293.13;;;-9.66;93.83
17260;BME280;8746;49.230;9.220;2022-12-18T01:12:19;101293.91;;;-9.80;94.23
17260;BME280;8746;49.230;9.220;2022-12-18T01:14:45;101289.09;;;-9.76;94.26
17260;BME280;8746;49.230;9.220;2022-12-18T01:17:10;101285.84;;;-9.73;94.10
17260;BME280;8746;49.230;9.220;2022-12-18T01:19:35;101287.09;;;-9.67;94.15
17260;BME280;8746;49.230;9.220;2022-12-18T01:22:01;101284.06;;;-9.61;92.87
17260;BME280;8746;49.230;9.220;2022-12-18T01:24:26;101281.13;;;-9.67;93.14
17260;BME280;8746;49.230;9.220;2022-12-18T01:26:52;101284.75;;;-9.63;94.20
17260;BME280;8746;49.230;9.220;2022-12-18T01:29:17;101287.50;;;-9.60;93.59
17260;BME280;8746;49.230;9.220;2022-12-18T01:31:43;101300.00;;;-9.52;92.60
17260;BME280;8746;49.230;9.220;2022-12-18T01:34:09;101309.38;;;-9.37;94.03
17260;BME280;8746;49.230;9.220;2022-12-18T01:36:37;101299.56;;;-9.44;93.20
17260;BME280;8746;49.230;9.220;2022-12-18T01:39:09;101308.59;;;-9.36;93.17
17260;BME280;8746;49.230;9.220;2022-12-18T01:41:36;101304.97;;;-9.53;94.05
17260;BME280;8746;49.230;9.220;2022-12-18T01:47:30;101296.91;;;-9.46;93.76
17260;BME280;8746;49.230;9.220;2022-12-18T01:49:58;101290.22;;;-9.44;94.73
17260;BME280;8746;49.230;9.220;2022-12-18T01:52:26;101287.09;;;-9.53;94.30
17260;BME280;8746;49.230;9.220;2022-12-18T01:54:53;101286.00;;;-9.57;95.47
17260;BME280;8746;49.230;9.220;2022-12-18T01:57:19;101292.81;;;-9.57;94.92
17260;BME280;8746;49.230;9.220;2022-12-18T01:59:48;101295.28;;;-9.59;95.14
17260;BME280;8746;49.230;9.220;2022-12-18T02:02:16;101305.50;;;-9.72;94.39
17260;BME280;8746;49.230;9.220;2022-12-18T02:04:42;101306.84;;;-9.64;94.53
17260;BME280;8746;49.230;9.220;2022-12-18T02:07:17;101314.03;;;-9.72;94.23
17260;BME280;8746;49.230;9.220;2022-12-18T02:09:51;101301.88;;;-9.76;93.67
17260;BME280;8746;49.230;9.220;2022-12-18T02:12:23;101307.38;;;-9.83;93.35
17260;BME280;8746;49.230;9.220;2022-12-18T02:15:13;101325.53;;;-9.78;93.40
17260;BME280;8746;49.230;9.220;2022-12-18T02:17:50;101318.06;;;-9.62;93.66
17260;BME280;8746;49.230;9.220;2022-12-18T02:20:31;101301.16;;;-9.60;94.67
17260;BME280;8746;49.230;9.220;2022-12-18T02:23:12;101290.03;;;-9.60;95.79
17260;BME280;8746;49.230;9.220;2022-12-18T02:26:01;101297.22;;;-9.55;95.98
17260;BME280;8746;49.230;9.220;2022-12-18T02:28:33;101292.31;;;-9.52;95.77
17260;BME280;8746;49.230;9.220;2022-12-18T02:31:02;101284.16;;;-9.59;96.01
17260;BME280;8746;49.230;9.220;2022-12-18T02:33:30;101307.28;;;-9.58;96.22
17260;BME280;8746;49.230;9.220;2022-12-18T02:35:57;101309.59;;;-9.47;95.93
17260;BME280;8746;49.230;9.220;2022-12-18T02:38:24;101315.69;;;-9.32;95.27
17260;BME280;8746;49.230;9.220;2022-12-18T02:40:51;101310.25;;;-9.23;93.76
17260;BME280;8746;49.230;9.220;2022-12-18T02:43:18;101318.50;;;-9.27;93.78
17260;BME280;8746;49.230;9.220;2022-12-18T02:45:54;101315.75;;;-9.30;94.26
17260;BME280;8746;49.230;9.220;2022-12-18T02:48:33;101315.75;;;-9.30;94.11
17260;BME280;8746;49.230;9.220;2022-12-18T02:54:33;101316.22;;;-9.23;93.75
17260;BME280;8746;49.230;9.220;2022-12-18T02:56:53;101310.72;;;-9.15;93.68
17260;BME280;8746;49.230;9.220;2022-12-18T02:59:33;101306.75;;;-9.10;94.92
17260;BME280;8746;49.230;9.220;2022-12-18T03:02:24;101310.72;;;-9.15;94.59
17260;BME280;8746;49.230;9.220;2022-12-18T03:05:04;101300.66;;;-8.99;93.98
17260;BME280;8746;49.230;9.220;2022-12-18T03:07:57;101303.31;;;-9.11;94.07
17260;BME280;8746;49.230;9.220;2022-12-18T03:10:28;101296.34;;;-9.13;94.36
17260;BME280;8746;49.230;9.220;2022-12-18T03:13:02;101298.50;;;-9.06;93.99
17260;BME280;8746;49.230;9.220;2022-12-18T03:15:33;101304.97;;;-9.11;94.44
17260;BME280;8746;49.230;9.220;2022-12-18T03:18:19;101298.31;;;-9.09;93.40
17260;BME280;8746;49.230;9.220;2022-12-18T03:20:49;101303.03;;;-9.15;93.94
17260;BME280;8746;49.230;9.220;2022-12-18T03:23:19;101310.59;;;-9.04;94.07
17260;BME280;8746;49.230;9.220;2022-12-18T03:25:48;101312.25;;;-9.04;93.04
17260;BME280;8746;49.230;9.220;2022-12-18T03:28:20;101307.53;;;-9.11;93.89
17260;BME280;8746;49.230;9.220;2022-12-18T03:30:50;101300.00;;;-9.10;94.24
17260;BME280;8746;49.230;9.220;2022-12-18T03:33:25;101290.19;;;-9.17;94.40
17260;BME280;8746;49.230;9.220;2022-12-18T03:35:52;101307.78;;;-9.22;95.04
17260;BME280;8746;49.230;9.220;2022-12-18T03:38:18;101310.34;;;-9.22;94.41
17260;BME280;8746;49.230;9.220;2022-12-18T03:45:54;101323.50;;;-9.15;93.18
17260;BME280;8746;49.230;9.220;2022-12-18T03:48:38;101318.38;;;-9.15;93.84
17260;BME280;8746;49.230;9.220;2022-12-18T03:51:17;101307.66;;;-9.10;93.17
17260;BME280;8746;49.230;9.220;2022-12-18T03:53:48;101319.94;;;-9.18;93.53
17260;BME280;8746;49.230;9.220;2022-12-18T03:56:18;101327.50;;;-9.06;93.59
17260;BME280;8746;49.230;9.220;2022-12-18T03:58:45;101327.03;;;-9.13;93.45
17260;BME280;8746;49.230;9.220;2022-12-18T04:01:13;101326.53;;;-9.21;94.00
17260;BME280;8746;49.230;9.220;2022-12-18T04:03:41;101316.63;;;-9.30;94.32
17260;BME280;8746;49.230;9.220;2022-12-18T04:06:08;101310.84;;;-9.41;94.40
17260;BME280;8746;49.230;9.220;2022-12-18T04:08:34;101311.00;;;-9.53;95.75
17260;BME280;8746;49.230;9.220;2022-12-18T04:11:01;101319.63;;;-9.51;94.97
17260;BME280;8746;49.230;9.220;2022-12-18T04:13:34;101323.38;;;-9.45;94.29
17260;BME280;8746;49.230;9.220;2022-12-18T04:16:00;101328.34;;;-9.47;94.29
17260;BME280;8746;49.230;9.220;2022-12-18T04:18:26;101326.09;;;-9.42;94.71
17260;BME280;8746;49.230;9.220;2022-12-18T04:20:51;101328.97;;;-9.51;95.20
17260;BME280;8746;49.230;9.220;2022-12-18T04:23:17;101318.84;;;-9.50;95.22
17260;BME280;8746;49.230;9.220;2022-12-18T04:25:42;101317.66;;;-9.55;95.34
17260;BME280;8746;49.230;9.220;2022-12-18T04:28:07;101319.63;;;-9.51;94.99
17260;BME280;8746;49.230;9.220;2022-12-18T04:30:33;101332.13;;;-9.55;93.64
17260;BME280;8746;49.230;9.220;2022-12-18T04:32:58;101327.28;;;-9.51;94.14
17260;BME280;8746;49.230;9.220;2022-12-18T04:35:24;101331.81;;;-9.60;94.29
17260;BME280;8746;49.230;9.220;2022-12-18T04:37:49;101332.91;;;-9.70;94.00
17260;BME280;8746;49.230;9.220;2022-12-18T04:40:14;101331.03;;;-9.72;93.20
17260;BME280;8746;49.230;9.220;2022-12-18T04:42:40;101328.28;;;-9.75;93.09
17260;BME280;8746;49.230;9.220;2022-12-18T04:45:06;101327.03;;;-9.82;93.40
17260;BME280;8746;49.230;9.220;2022-12-18T04:47:32;101332.22;;;-9.94;91.88
17260;BME280;8746;49.230;9.220;2022-12-18T04:49:58;101328.88;;;-9.93;92.00
17260;BME280;8746;49.230;9.220;2022-12-18T04:52:23;101335.13;;;-10.15;94.18
17260;BME280;8746;49.230;9.220;2022-12-18T04:54:48;101324.03;;;-10.15;93.56
17260;BME280;8746;49.230;9.220;2022-12-18T04:57:14;101325.00;;;-10.13;93.86
17260;BME280;8746;49.230;9.220;2022-12-18T04:59:39;101338.75;;;-10.11;93.17
17260;BME280;8746;49.230;9.220;2022-12-18T05:02:05;101338.44;;;-10.16;92.86
17260;BME280;8746;49.230;9.220;2022-12-18T05:04:30;101334.94;;;-10.18;92.79
17260;BME280;8746;49.230;9.220;2022-12-18T05:06:55;101325.97;;;-10.24;92.74
17260;BME280;8746;49.230;9.220;2022-12-18T05:09:21;101331.06;;;-10.24;92.44
17260;BME280;8746;49.230;9.220;2022-12-18T05:11:46;101338.13;;;-10.20;92.43
17260;BME280;8746;49.230;9.220;2022-12-18T05:14:12;101338.75;;;-10.11;92.26
17260;BME280;8746;49.230;9.220;2022-12-18T05:16:37;101336.31;;;-10.09;92.25
17260;BME280;8746;49.230;9.220;2022-12-18T05:19:02;101329.44;;;-9.97;92.44
17260;BME280;8746;49.230;9.220;2022-12-18T05:21:28;101334.66;;;-10.09;91.61
17260;BME280;8746;49.230;9.220;2022-12-18T05:23:53;101342.41;;;-10.07;92.22
17260;BME280;8746;49.230;9.220;2022-12-18T05:26:18;101343.09;;;-9.96;92.00
17260;BME280;8746;49.230;9.220;2022-12-18T05:28:45;101335.53;;;-10.08;91.00
17260;BME280;8746;49.230;9.220;2022-12-18T05:31:11;101343.78;;;-10.12;90.41
17260;BME280;8746;49.230;9.220;2022-12-18T05:33:36;101344.34;;;-10.17;90.54
17260;BME280;8746;49.230;9.220;2022-12-18T05:36:04;101352.84;;;-10.29;90.41
17260;BME280;8746;49.230;9.220;2022-12-18T05:38:31;101354.31;;;-10.33;90.01
17260;BME280;8746;49.230;9.220;2022-12-18T05:40:57;101359.34;;;-10.35;91.19
17260;BME280;8746;49.230;9.220;2022-12-18T05:43:23;101356.78;;;-10.35;91.26
17260;BME280;8746;49.230;9.220;2022-12-18T05:45:51;101358.84;;;-10.29;90.96
17260;BME280;8746;49.230;9.220;2022-12-18T05:48:17;101360.59;;;-10.28;91.17
17260;BME280;8746;49.230;9.220;2022-12-18T05:50:44;101362.38;;;-10.40;90.66
17260;BME280;8746;49.230;9.220;2022-12-18T05:53:18;101364.44;;;-10.35;91.75
17260;BME280;8746;49.230;9.220;2022-12-18T05:55:45;101376.13;;;-10.25;92.75
17260;BME280;8746;49.230;9.220;2022-12-18T05:58:12;101372.22;;;-10.20;91.79
17260;BME280;8746;49.230;9.220;2022-12-18T06:00:41;101367.75;;;-10.36;91.87
17260;BME280;8746;49.230;9.220;2022-12-18T06:03:09;101367.56;;;-10.39;91.21
17260;BME280;8746;49.230;9.220;2022-12-18T06:05:40;101375.59;;;-10.46;92.00
17260;BME280;8746;49.230;9.220;2022-12-18T06:08:06;101377.59;;;-10.42;91.57
17260;BME280;8746;49.230;9.220;2022-12-18T06:10:32;101373.72;;;-10.49;91.25
17260;BME280;8746;49.230;9.220;2022-12-18T06:12:57;101377.19;;;-10.35;91.64
17260;BME280;8746;49.230;9.220;2022-12-18T06:15:23;101368.25;;;-10.41;91.12
17260;BME280;8746;49.230;9.220;2022-12-18T06:17:48;101365.53;;;-10.31;91.47
17260;BME280;8746;49.230;9.220;2022-12-18T06:20:14;101367.75;;;-10.36;91.11
17260;BME280;8746;49.230;9.220;2022-12-18T06:22:39;101369.25;;;-10.39;90.76
17260;BME280;8746;49.230;9.220;2022-12-18T06:25:05;101373.03;;;-10.46;90.32
17260;BME280;8746;49.230;9.220;2022-12-18T06:27:31;101371.72;;;-10.41;90.58
17260;BME280;8746;49.230;9.220;2022-12-18T06:29:59;101370.63;;;-10.31;91.66
17260;BME280;8746;49.230;9.220;2022-12-18T06:32:24;101370.66;;;-10.18;92.80
17260;BME280;8746;49.230;9.220;2022-12-18T06:34:49;101368.63;;;-10.10;92.22
17260;BME280;8746;49.230;9.220;2022-12-18T06:37:15;101371.94;;;-10.11;92.41
17260;BME280;8746;49.230;9.220;2022-12-18T06:39:40;101382.06;;;-10.12;92.83
17260;BME280;8746;49.230;9.220;2022-12-18T06:42:05;101373.63;;;-10.11;92.56
17260;BME280;8746;49.230;9.220;2022-12-18T06:44:31;101368.91;;;-10.05;93.24
17260;BME280;8746;49.230;9.220;2022-12-18T06:46:56;101378.44;;;-10.03;92.05
17260;BME280;8746;49.230;9.220;2022-12-18T06:49:21;101380.97;;;-10.16;92.93
17260;BME280;8746;49.230;9.220;2022-12-18T06:51:47;101384.38;;;-10.16;92.90
17260;BME280;8746;49.230;9.220;2022-12-18T06:54:12;101383.84;;;-10.11;92.67
17260;BME280;8746;49.230;9.220;2022-12-18T06:56:38;101390.91;;;-10.07;92.79
17260;BME280;8746;49.230;9.220;2022-12-18T06:59:03;101398.88;;;-10.03;92.93
17260;BME280;8746;49.230;9.220;2022-12-18T07:01:28;101397.59;;;-9.96;93.35
17260;BME280;8746;49.230;9.220;2022-12-18T07:03:56;101407.94;;;-9.94;92.33
17260;BME280;8746;49.230;9.220;2022-12-18T07:06:24;101416.56;;;-9.92;92.65
17260;BME280;8746;49.230;9.220;2022-12-18T07:08:50;101412.53;;;-9.89;92.76
17260;BME280;8746;49.230;9.220;2022-12-18T07:11:17;101410.59;;;-9.79;92.04
17260;BME280;8746;49.230;9.220;2022-12-18T07:13:43;101416.88;;;-9.74;92.18
17260;BME280;8746;49.230;9.220;2022-12-18T07:16:13;101415.50;;;-9.83;91.88
17260;BME280;8746;49.230;9.220;2022-12-18T07:18:39;101412.41;;;-9.65;92.11
17260;BME280;8746;49.230;9.220;2022-12-18T07:21:06;101422.09;;;-9.59;92.99
17260;BME280;8746;49.230;9.220;2022-12-18T07:23:33;101416.91;;;-9.61;92.70
17260;BME280;8746;49.230;9.220;2022-12-18T07:26:04;101420.63;;;-9.69;92.45
17260;BME280;8746;49.230;9.220;2022-12-18T07:28:29;101423.97;;;-9.70;93.50
17260;BME280;8746;49.230;9.220;2022-12-18T07:30:55;101426.47;;;-9.84;93.30
17260;BME280;8746;49.230;9.220;2022-12-18T07:33:20;101426.88;;;-9.77;94.06
17260;BME280;8746;49.230;9.220;2022-12-18T07:35:45;101424.94;;;-9.68;93.50
17260;BME280;8746;49.230;9.220;2022-12-18T07:38:11;101440.47;;;-9.78;94.05
17260;BME280;8746;49.230;9.220;2022-12-18T07:40:36;101439.66;;;-9.77;94.08
17260;BME280;8746;49.230;9.220;2022-12-18T07:43:01;101433.78;;;-9.76;94.36
17260;BME280;8746;49.230;9.220;2022-12-18T07:45:27;101433.09;;;-9.74;94.42
17260;BME280;8746;49.230;9.220;2022-12-18T07:47:55;101430.75;;;-9.71;94.15
17260;BME280;8746;49.230;9.220;2022-12-18T07:50:21;101432.81;;;-9.65;94.19
17260;BME280;8746;49.230;9.220;2022-12-18T07:52:46;101437.94;;;-9.65;94.45
17260;BME280;8746;49.230;9.220;2022-12-18T07:55:11;101434.78;;;-9.61;94.55
17260;BME280;8746;49.230;9.220;2022-12-18T07:57:37;101440.75;;;-9.60;94.84
17260;BME280;8746;49.230;9.220;2022-12-18T08:00:03;101444.81;;;-9.51;95.02
17260;BME280;8746;49.230;9.220;2022-12-18T08:02:30;101446.59;;;-9.50;95.51
17260;BME280;8746;49.230;9.220;2022-12-18T08:04:56;101454.66;;;-9.43;95.47
17260;BME280;8746;49.230;9.220;2022-12-18T08:07:21;101447.97;;;-9.41;95.67
17260;BME280;8746;49.230;9.220;2022-12-18T08:09:47;101433.03;;;-9.35;95.17
17260;BME280;8746;49.230;9.220;2022-12-18T08:12:12;101448.97;;;-9.26;95.15
17260;BME280;8746;49.230;9.220;2022-12-18T08:14:38;101444.44;;;-9.16;94.96
17260;BME280;8746;49.230;9.220;2022-12-18T08:17:03;101440.31;;;-9.14;94.88
17260;BME280;8746;49.230;9.220;2022-12-18T08:19:28;101441.88;;;-9.16;95.03
17260;BME280;8746;49.230;9.220;2022-12-18T08:21:54;101438.22;;;-9.07;95.16
17260;BME280;8746;49.230;9.220;2022-12-18T08:24:19;101447.28;;;-8.98;95.33
17260;BME280;8746;49.230;9.220;2022-12-18T08:26:44;101441.47;;;-8.96;95.70
17260;BME280;8746;49.230;9.220;2022-12-18T08:29:10;101441.75;;;-8.91;95.84
17260;BME280;8746;49.230;9.220;2022-12-18T08:31:35;101452.75;;;-8.79;95.12
17260;BME280;8746;49.230;9.220;2022-12-18T08:34:01;101447.84;;;-8.76;95.45
17260;BME280;8746;49.230;9.220;2022-12-18T08:36:27;101448.59;;;-8.63;95.32
17260;BME280;8746;49.230;9.220;2022-12-18T08:38:52;101449.47;;;-8.63;95.16
17260;BME280;8746;49.230;9.220;2022-12-18T08:41:18;101445.25;;;-8.62;95.80
17260;BME280;8746;49.230;9.220;2022-12-18T08:43:44;101437.34;;;-8.52;95.29
17260;BME280;8746;49.230;9.220;2022-12-18T08:46:33;101437.06;;;-8.42;96.00
17260;BME280;8746;49.230;9.220;2022-12-18T08:48:59;101436.41;;;-8.39;95.50
17260;BME280;8746;49.230;9.220;2022-12-18T08:51:24;101448.16;;;-8.28;95.89
17260;BME280;8746;49.230;9.220;2022-12-18T08:53:50;101444.03;;;-8.26;95.58
17260;BME280;8746;49.230;9.220;2022-12-18T08:56:15;101438.44;;;-8.18;95.45
17260;BME280;8746;49.230;9.220;2022-12-18T08:58:41;101426.81;;;-8.13;95.27
17260;BME280;8746;49.230;9.220;2022-12-18T09:01:09;101422.06;;;-8.07;95.45
17260;BME280;8746;49.230;9.220;2022-12-18T09:03:35;101419.88;;;-8.01;95.46
17260;BME280;8746;49.230;9.220;2022-12-18T09:06:01;101410.06;;;-7.93;96.31
17260;BME280;8746;49.230;9.220;2022-12-18T09:08:27;101403.72;;;-7.85;95.76
17260;BME280;8746;49.230;9.220;2022-12-18T09:10:52;101399.00;;;-7.77;95.87
17260;BME280;8746;49.230;9.220;2022-12-18T09:13:18;101404.94;;;-7.63;95.56
17260;BME280;8746;49.230;9.220;2022-12-18T09:15:46;101404.94;;;-7.63;95.11
17260;BME280;8746;49.230;9.220;2022-12-18T09:18:14;101409.06;;;-7.50;95.52
17260;BME280;8746;49.230;9.220;2022-12-18T09:20:39;101405.09;;;-7.45;94.85
17260;BME280;8746;49.230;9.220;2022-12-18T09:23:06;101412.06;;;-7.28;94.09
17260;BME280;8746;49.230;9.220;2022-12-18T09:25:32;101401.34;;;-7.20;94.20
17260;BME280;8746;49.230;9.220;2022-12-18T09:28:03;101399.19;;;-7.13;94.20
17260;BME280;8746;49.230;9.220;2022-12-18T09:30:29;101399.16;;;-6.98;92.57
17260;BME280;8746;49.230;9.220;2022-12-18T09:32:55;101395.41;;;-6.88;93.42
17260;BME280;8746;49.230;9.220;2022-12-18T09:35:21;101397.91;;;-6.73;92.97
17260;BME280;8746;49.230;9.220;2022-12-18T09:37:46;101384.13;;;-6.58;91.99
17260;BME280;8746;49.230;9.220;2022-12-18T09:40:21;101390.13;;;-6.41;91.15
17260;BME280;8746;49.230;9.220;2022-12-18T09:42:52;101379.03;;;-6.24;89.80
17260;BME280;8746;49.230;9.220;2022-12-18T09:45:19;101386.63;;;-5.74;87.51
17260;BME280;8746;49.230;9.220;2022-12-18T09:47:47;101380.25;;;-5.28;86.32
17260;BME280;8746;49.230;9.220;2022-12-18T09:50:22;101383.69;;;-5.10;85.86
17260;BME280;8746;49.230;9.220;2022-12-18T09:52:51;101372.66;;;-4.70;82.98
17260;BME280;8746;49.230;9.220;2022-12-18T09:57:57;101367.75;;;-4.24;82.27
17260;BME280;8746;49.230;9.220;2022-12-18T10:00:27;101369.53;;;-4.43;82.29
17260;BME280;8746;49.230;9.220;2022-12-18T10:02:59;101358.13;;;-3.88;80.57
17260;BME280;8746;49.230;9.220;2022-12-18T10:08:13;101366.03;;;-2.95;76.11
17260;BME280;8746;49.230;9.220;2022-12-18T10:10:46;101368.84;;;-2.89;75.75
17260;BME280;8746;49.230;9.220;2022-12-18T10:13:33;101368.94;;;-3.96;79.56
17260;BME280;8746;49.230;9.220;2022-12-18T10:16:16;101356.34;;;-3.67;79.03
17260;BME280;8746;49.230;9.220;2022-12-18T10:19:01;101364.56;;;-3.34;79.16
17260;BME280;8746;49.230;9.220;2022-12-18T10:21:52;101368.47;;;-3.65;79.15
17260;BME280;8746;49.230;9.220;2022-12-18T10:24:32;101371.78;;;-3.25;78.92
17260;BME280;8746;49.230;9.220;2022-12-18T10:27:12;101377.41;;;-2.90;76.59
17260;BME280;8746;49.230;9.220;2022-12-18T10:29:39;101384.63;;;-3.48;77.85
17260;BME280;8746;49.230;9.220;2022-12-18T10:32:07;101371.06;;;-2.76;77.03
17260;BME280;8746;49.230;9.220;2022-12-18T10:34:32;101367.31;;;-3.07;76.89
17260;BME280;8746;49.230;9.220;2022-12-18T10:37:00;101365.56;;;-2.85;77.33
17260;BME280;8746;49.230;9.220;2022-12-18T10:39:26;101369.72;;;-2.42;76.72
17260;BME280;8746;49.230;9.220;2022-12-18T10:41:52;101362.09;;;-1.61;73.60
17260;BME280;8746;49.230;9.220;2022-12-18T10:44:34;101369.75;;;-1.37;71.80
17260;BME280;8746;49.230;9.220;2022-12-18T10:47:05;101367.22;;;-1.63;72.30
17260;BME280;8746;49.230;9.220;2022-12-18T10:49:35;101370.00;;;-2.81;75.30
17260;BME280;8746;49.230;9.220;2022-12-18T10:52:06;101370.91;;;-2.56;76.59
17260;BME280;8746;49.230;9.220;2022-12-18T10:54:33;101362.53;;;-2.97;76.42
17260;BME280;8746;49.230;9.220;2022-12-18T10:57:30;101354.47;;;-3.05;78.72
17260;BME280;8746;49.230;9.220;2022-12-18T10:59:57;101361.31;;;-3.28;78.50
17260;BME280;8746;49.230;9.220;2022-12-18T11:02:36;101355.34;;;-3.27;79.75
17260;BME280;8746;49.230;9.220;2022-12-18T11:05:04;101365.38;;;-3.56;80.72
17260;BME280;8746;49.230;9.220;2022-12-18T11:07:49;101357.34;;;-3.85;82.08
17260;BME280;8746;49.230;9.220;2022-12-18T11:10:17;101357.09;;;-3.91;81.69
17260;BME280;8746;49.230;9.220;2022-12-18T11:12:43;101351.44;;;-4.04;81.45
17260;BME280;8746;49.230;9.220;2022-12-18T11:15:16;101344.84;;;-3.97;82.81
17260;BME280;8746;49.230;9.220;2022-12-18T11:17:47;101340.88;;;-3.89;82.48
17260;BME280;8746;49.230;9.220;2022-12-18T11:20:21;101333.88;;;-3.70;82.33
17260;BME280;8746;49.230;9.220;2022-12-18T11:23:03;101336.16;;;-3.78;82.44
17260;BME280;8746;49.230;9.220;2022-12-18T11:25:30;101342.00;;;-3.82;83.82
17260;BME280;8746;49.230;9.220;2022-12-18T11:27:59;101342.50;;;-3.91;82.79
17260;BME280;8746;49.230;9.220;2022-12-18T11:37:57;101332.00;;;-3.74;83.37
17260;BME280;8746;49.230;9.220;2022-12-18T11:40:35;101324.00;;;-3.59;83.15
17260;BME280;8746;49.230;9.220;2022-12-18T11:43:17;101327.25;;;-3.42;83.09
17260;BME280;8746;49.230;9.220;2022-12-18T11:45:55;101316.38;;;-3.56;82.35
17260;BME280;8746;49.230;9.220;2022-12-18T11:48:24;101309.59;;;-3.54;83.19
17260;BME280;8746;49.230;9.220;2022-12-18T11:50:56;101304.22;;;-3.38;82.78
17260;BME280;8746;49.230;9.220;2022-12-18T11:53:26;101303.59;;;-3.53;82.50
17260;BME280;8746;49.230;9.220;2022-12-18T11:58:57;101308.94;;;-3.26;81.43
17260;BME280;8746;49.230;9.220;2022-12-18T12:01:40;101305.06;;;-3.37;81.02
17260;BME280;8746;49.230;9.220;2022-12-18T12:09:27;101296.34;;;-3.18;82.02
17260;BME280;8746;49.230;9.220;2022-12-18T12:12:21;101283.94;;;-3.27;82.12
17260;BME280;8746;49.230;9.220;2022-12-18T12:17:42;101281.00;;;-3.38;82.55
17260;BME280;8746;49.230;9.220;2022-12-18T12:21:02;101284.81;;;-3.28;81.91
17260;BME280;8746;49.230;9.220;2022-12-18T12:26:09;101282.03;;;-3.32;81.55
17260;BME280;8746;49.230;9.220;2022-12-18T12:28:51;101285.44;;;-3.33;81.31
17260;BME280;8746;49.230;9.220;2022-12-18T12:31:53;101275.56;;;-3.21;81.62
17260;BME280;8746;49.230;9.220;2022-12-18T12:34:26;101277.78;;;-3.08;81.76
17260;BME280;8746;49.230;9.220;2022-12-18T12:39:41;101267.41;;;-3.09;81.73
17260;BME280;8746;49.230;9.220;2022-12-18T12:42:20;101272.19;;;-2.96;81.96
17260;BME280;8746;49.230;9.220;2022-12-18T12:45:16;101268.78;;;-2.70;82.11
17260;BME280;8746;49.230;9.220;2022-12-18T12:47:46;101277.25;;;-2.75;81.26
17260;BME280;8746;49.230;9.220;2022-12-18T12:50:16;101274.19;;;-2.64;80.71
17260;BME280;8746;49.230;9.220;2022-12-18T12:52:50;101285.72;;;-2.79;80.27
17260;BME280;8746;49.230;9.220;2022-12-18T12:55:21;101280.44;;;-2.82;81.29
17260;BME280;8746;49.230;9.220;2022-12-18T13:00:40;101282.69;;;-2.91;81.11
17260;BME280;8746;49.230;9.220;2022-12-18T13:03:43;101278.66;;;-2.83;81.05
17260;BME280;8746;49.230;9.220;2022-12-18T13:09:02;101274.69;;;-2.49;80.71
17260;BME280;8746;49.230;9.220;2022-12-18T13:11:39;101276.31;;;-2.77;80.65
17260;BME280;8746;49.230;9.220;2022-12-18T13:14:44;101281.34;;;-2.81;81.10
17260;BME280;8746;49.230;9.220;2022-12-18T13:17:30;101277.47;;;-2.68;81.45
17260;BME280;8746;49.230;9.220;2022-12-18T13:20:22;101267.75;;;-2.76;81.17
17260;BME280;8746;49.230;9.220;2022-12-18T13:22:58;101261.88;;;-2.71;81.47
17260;BME280;8746;49.230;9.220;2022-12-18T13:25:35;101265.72;;;-2.84;81.60
17260;BME280;8746;49.230;9.220;2022-12-18T13:31:01;101268.34;;;-2.83;81.79
17260;BME280;8746;49.230;9.220;2022-12-18T13:36:16;101258.81;;;-2.84;81.63
17260;BME280;8746;49.230;9.220;2022-12-18T13:41:39;101248.22;;;-2.67;81.63
17260;BME280;8746;49.230;9.220;2022-12-18T13:46:58;101248.28;;;-2.66;81.77
17260;BME280;8746;49.230;9.220;2022-12-18T13:49:45;101249.53;;;-2.54;82.38
17260;BME280;8746;49.230;9.220;2022-12-18T13:52:24;101248.09;;;-2.70;82.73
17260;BME280;8746;49.230;9.220;2022-12-18T13:54:55;101249.56;;;-2.79;82.20
17260;BME280;8746;49.230;9.220;2022-12-18T13:57:36;101247.19;;;-2.72;82.85
17260;BME280;8746;49.230;9.220;2022-12-18T14:00:25;101236.34;;;-2.86;82.66
17260;BME280;8746;49.230;9.220;2022-12-18T14:02:51;101230.22;;;-2.90;83.16
17260;BME280;8746;49.230;9.220;2022-12-18T14:05:24;101240.09;;;-3.02;83.82
17260;BME280;8746;49.230;9.220;2022-12-18T14:07:50;101235.00;;;-3.01;84.30
17260;BME280;8746;49.230;9.220;2022-12-18T14:10:16;101242.09;;;-2.95;84.00